Observation data for Morton on 01/21/2019      Previous  Date  Next       Current Mesonet Observations  Soil Data  Daily Summary Page  Observations in Plain Language
KMNS 210600Z 20009KT 05/M07 A2999 RMK A01 T00511068  RH  042%=      5-min Rain = 0
KMNS 210605Z 20008KT 05/M07 A2999 RMK A01 T00511069  RH  041%=      5-min Rain = 0
KMNS 210610Z 20009KT 06/M07 A2999 RMK A01 T00551070  RH  040%=      5-min Rain = 0
KMNS 210615Z 21011KT 06/M07 A2999 RMK A01 T00581071  RH  039%=      5-min Rain = 0
KMNS 210620Z 21012KT 06/M07 A2999 RMK A01 T00611072  RH  038%=      5-min Rain = 0
KMNS 210625Z 21012KT 06/M07 A2999 RMK A01 T00601074  RH  038%=      5-min Rain = 0
KMNS 210630Z 21012KT 06/M07 A2999 RMK A01 T00601074  RH  037%=      5-min Rain = 0
KMNS 210635Z 21013KT 06/M08 A2999 RMK A01 T00611075  RH  037%=      5-min Rain = 0
KMNS 210640Z 21012KT 06/M08 A2998 RMK A01 T00591075  RH  037%=      5-min Rain = 0
KMNS 210645Z 21012KT 06/M07 A2998 RMK A01 T00571074  RH  038%=      5-min Rain = 0
KMNS 210650Z 21011KT 06/M07 A2998 RMK A01 T00561074  RH  039%=      5-min Rain = 0
KMNS 210655Z 20011KT 06/M07 A2998 RMK A01 T00551073  RH  039%=      5-min Rain = 0
KMNS 210700Z 20011KT 06/M07 A2997 RMK A01 T00551074  RH  039%=      5-min Rain = 0
KMNS 210705Z 20010KT 05/M07 A2997 RMK A01 T00531073  RH  039%=      5-min Rain = 0
KMNS 210710Z 20009KT 05/M07 A2997 RMK A01 T00501073  RH  041%=      5-min Rain = 0
KMNS 210715Z 20008KT 05/M07 A2996 RMK A01 T00461072  RH  042%=      5-min Rain = 0
KMNS 210720Z 20009KT 04/M07 A2996 RMK A01 T00441071  RH  043%=      5-min Rain = 0
KMNS 210725Z 20008KT 04/M07 A2996 RMK A01 T00421071  RH  044%=      5-min Rain = 0
KMNS 210730Z 21008KT 04/M07 A2995 RMK A01 T00371070  RH  045%=      5-min Rain = 0
KMNS 210735Z 22008KT 04/M07 A2995 RMK A01 T00371070  RH  046%=      5-min Rain = 0
KMNS 210740Z 22008KT 04/M07 A2995 RMK A01 T00391071  RH  045%=      5-min Rain = 0
KMNS 210745Z 21008KT 04/M07 A2994 RMK A01 T00381071  RH  045%=      5-min Rain = 0
KMNS 210750Z 22007KT 04/M07 A2995 RMK A01 T00361071  RH  046%=      5-min Rain = 0
KMNS 210755Z 23008KT 04/M07 A2994 RMK A01 T00371071  RH  045%=      5-min Rain = 0
KMNS 210800Z 22008KT 04/M07 A2994 RMK A01 T00381072  RH  045%=      5-min Rain = 0
KMNS 210805Z 22009KT 04/M07 A2994 RMK A01 T00401072  RH  044%=      5-min Rain = 0
KMNS 210810Z 22009KT 04/M07 A2993 RMK A01 T00411073  RH  043%=      5-min Rain = 0
KMNS 210815Z 21010KT 04/M07 A2993 RMK A01 T00411074  RH  043%=      5-min Rain = 0
KMNS 210820Z 21009KT 04/M07 A2993 RMK A01 T00381074  RH  044%=      5-min Rain = 0
KMNS 210825Z 21009KT 04/M07 A2993 RMK A01 T00371074  RH  044%=      5-min Rain = 0
KMNS 210830Z 21009KT 03/M07 A2993 RMK A01 T00331073  RH  046%=      5-min Rain = 0
KMNS 210835Z 20007KT 03/M07 A2993 RMK A01 T00271073  RH  048%=      5-min Rain = 0
KMNS 210840Z 20007KT 03/M07 A2993 RMK A01 T00251073  RH  049%=      5-min Rain = 0
KMNS 210845Z 20006KT 02/M07 A2992 RMK A01 T00151073  RH  052%=      5-min Rain = 0
KMNS 210850Z 21007KT 02/M07 A2992 RMK A01 T00201071  RH  051%=      5-min Rain = 0
KMNS 210855Z 21007KT 02/M07 A2992 RMK A01 T00201071  RH  051%=      5-min Rain = 0
KMNS 210900Z 20008KT 02/M07 A2992 RMK A01 T00221072  RH  050%=      5-min Rain = 0
KMNS 210905Z 20009KT 03/M07 A2991 RMK A01 T00251072  RH  049%=      5-min Rain = 0
KMNS 210910Z 20010KT 03/M07 A2991 RMK A01 T00251072  RH  048%=      5-min Rain = 0
KMNS 210915Z 20010KT 02/M07 A2991 RMK A01 T00241072  RH  049%=      5-min Rain = 0
KMNS 210920Z 21011KT 03/M07 A2991 RMK A01 T00251072  RH  049%=      5-min Rain = 0
KMNS 210925Z 21011KT 03/M07 A2991 RMK A01 T00251073  RH  048%=      5-min Rain = 0
KMNS 210930Z 21011KT 03/M07 A2991 RMK A01 T00291073  RH  047%=      5-min Rain = 0
KMNS 210935Z 21011KT 03/M07 A2992 RMK A01 T00281073  RH  047%=      5-min Rain = 0
KMNS 210940Z 21010KT 03/M07 A2992 RMK A01 T00281072  RH  048%=      5-min Rain = 0
KMNS 210945Z 21009KT 03/M07 A2991 RMK A01 T00261071  RH  049%=      5-min Rain = 0
KMNS 210950Z 21009KT 03/M07 A2991 RMK A01 T00261069  RH  049%=      5-min Rain = 0
KMNS 210955Z 21009KT 03/M07 A2991 RMK A01 T00251068  RH  050%=      5-min Rain = 0
KMNS 211000Z 21009KT 03/M07 A2991 RMK A01 T00271066  RH  050%=      5-min Rain = 0
KMNS 211005Z 20007KT 02/M07 A299 RMK A01 T00231066  RH  052%=      5-min Rain = 0
KMNS 211010Z 22005KT 02/M07 A2991 RMK A01 T00181067  RH  053%=      5-min Rain = 0
KMNS 211015Z 24005KT 02/M07 A2991 RMK A01 T00171067  RH  054%=      5-min Rain = 0
KMNS 211020Z 23007KT 02/M07 A2991 RMK A01 T00171065  RH  055%=      5-min Rain = 0
KMNS 211025Z 24007KT 02/M07 A2991 RMK A01 T00151066  RH  055%=      5-min Rain = 0
KMNS 211030Z 25007KT 01/M07 A2991 RMK A01 T00061072  RH  056%=      5-min Rain = 0
KMNS 211035Z 26007KT 00/07 A2991 RMK A01 T00-00-74  RH  057%=      5-min Rain = 0
KMNS 211040Z 26007KT M00/M08 A299 RMK A01 T10041075  RH  059%=      5-min Rain = 0
KMNS 211045Z 27005KT M01/M08 A299 RMK A01 T10081075  RH  060%=      5-min Rain = 0
KMNS 211050Z 26004KT M01/M08 A299 RMK A01 T10091075  RH  061%=      5-min Rain = 0
KMNS 211055Z 28005KT M01/M08 A299 RMK A01 T10111075  RH  061%=      5-min Rain = 0
KMNS 211100Z 27005KT M01/M08 A2989 RMK A01 T10121076  RH  062%=      5-min Rain = 0
KMNS 211105Z 27005KT M01/M08 A2989 RMK A01 T10111075  RH  062%=      5-min Rain = 0
KMNS 211110Z 26006KT M01/M08 A2989 RMK A01 T10131077  RH  062%=      5-min Rain = 0
KMNS 211115Z 24006KT M01/M08 A2988 RMK A01 T10141076  RH  063%=      5-min Rain = 0
KMNS 211120Z 25006KT M01/M08 A2989 RMK A01 T10141075  RH  063%=      5-min Rain = 0
KMNS 211125Z 25007KT M01/M07 A2989 RMK A01 T10121073  RH  063%=      5-min Rain = 0
KMNS 211130Z 26007KT M01/M07 A299 RMK A01 T10101073  RH  063%=      5-min Rain = 0
KMNS 211135Z 26006KT M01/M07 A299 RMK A01 T10111073  RH  063%=      5-min Rain = 0
KMNS 211140Z 25006KT M01/M07 A299 RMK A01 T10111074  RH  063%=      5-min Rain = 0
KMNS 211145Z 25006KT M01/M07 A299 RMK A01 T10121073  RH  063%=      5-min Rain = 0
KMNS 211150Z 25006KT M01/M07 A299 RMK A01 T10111073  RH  063%=      5-min Rain = 0
KMNS 211155Z 25006KT M01/M07 A2989 RMK A01 T10111074  RH  062%=      5-min Rain = 0
KMNS 211200Z 24006KT M01/M07 A2989 RMK A01 T10091074  RH  062%=      5-min Rain = 0
KMNS 211205Z 24007KT M00/M07 A2989 RMK A01 T10031073  RH  059%=      5-min Rain = 0
KMNS 211210Z 25005KT M00/M08 A2989 RMK A01 T10031075  RH  058%=      5-min Rain = 0
KMNS 211215Z 24004KT M01/M08 A2989 RMK A01 T10071076  RH  060%=      5-min Rain = 0
KMNS 211220Z 24005KT M00/M08 A2989 RMK A01 T10041075  RH  059%=      5-min Rain = 0
KMNS 211225Z 23004KT M00/M08 A2988 RMK A01 T10041076  RH  058%=      5-min Rain = 0
KMNS 211230Z 22003KT M01/M08 A2988 RMK A01 T10051076  RH  059%=      5-min Rain = 0
KMNS 211235Z 23004KT M01/M08 A2988 RMK A01 T10061077  RH  059%=      5-min Rain = 0
KMNS 211240Z 22004KT M00/M08 A2987 RMK A01 T10021075  RH  057%=      5-min Rain = 0
KMNS 211245Z 21005KT 00/M08 A2987 RMK A01 T00011076  RH  056%=      5-min Rain = 0
KMNS 211250Z 21005KT M00/M08 A2988 RMK A01 T10011076  RH  057%=      5-min Rain = 0
KMNS 211255Z 19005KT M01/M08 A2987 RMK A01 T10061075  RH  059%=      5-min Rain = 0
KMNS 211300Z 20006KT M01/M08 A2988 RMK A01 T10111075  RH  062%=      5-min Rain = 0
KMNS 211305Z 20006KT M01/M07 A2988 RMK A01 T10121073  RH  063%=      5-min Rain = 0
KMNS 211310Z 19006KT M01/M07 A2988 RMK A01 T10131073  RH  063%=      5-min Rain = 0
KMNS 211315Z 20007KT M01/M07 A2988 RMK A01 T10101072  RH  062%=      5-min Rain = 0
KMNS 211320Z 20006KT M01/M07 A2988 RMK A01 T10081072  RH  062%=      5-min Rain = 0
KMNS 211325Z 20006KT M01/M07 A2988 RMK A01 T10071072  RH  062%=      5-min Rain = 0
KMNS 211330Z 20005KT M01/M07 A2988 RMK A01 T10081072  RH  062%=      5-min Rain = 0
KMNS 211335Z 20005KT M01/M07 A2988 RMK A01 T10091071  RH  063%=      5-min Rain = 0
KMNS 211340Z 21006KT M01/M07 A2987 RMK A01 T10091071  RH  063%=      5-min Rain = 0
KMNS 211345Z 21005KT M01/M07 A2988 RMK A01 T10101071  RH  063%=      5-min Rain = 0
KMNS 211350Z 21005KT M01/M07 A2988 RMK A01 T10071071  RH  062%=      5-min Rain = 0
KMNS 211355Z 20007KT M01/M07 A2987 RMK A01 T10071070  RH  063%=      5-min Rain = 0
KMNS 211400Z 19008KT M01/M07 A2987 RMK A01 T10081069  RH  063%=      5-min Rain = 0
KMNS 211405Z 20009KT M01/M07 A2987 RMK A01 T10051066  RH  063%=      5-min Rain = 0
KMNS 211410Z 19009KT M00/M07 A2987 RMK A01 T10021066  RH  062%=      5-min Rain = 0
KMNS 211415Z 19009KT 00/07 A2986 RMK A01 T00-00-66  RH  061%=      5-min Rain = 0
KMNS 211420Z 20008KT 00/M07 A2987 RMK A01 T00011066  RH  061%=      5-min Rain = 0
KMNS 211425Z 21005KT 00/M07 A2987 RMK A01 T00041066  RH  060%=      5-min Rain = 0
KMNS 211430Z 21005KT 01/M06 A2987 RMK A01 T00091062  RH  059%=      5-min Rain = 0
KMNS 211435Z 20005KT 02/M06 A2987 RMK A01 T00161061  RH  057%=      5-min Rain = 0
KMNS 211440Z 19008KT 02/M06 A2986 RMK A01 T00221059  RH  055%=      5-min Rain = 0
KMNS 211445Z 19008KT 03/M06 A2986 RMK A01 T00261061  RH  053%=      5-min Rain = 0
KMNS 211450Z 21006KT 04/M06 A2986 RMK A01 T00361058  RH  050%=      5-min Rain = 0
KMNS 211455Z 21006KT 04/M06 A2986 RMK A01 T00431059  RH  047%=      5-min Rain = 0
KMNS 211500Z 21006KT 05/M06 A2986 RMK A01 T00511058  RH  045%=      5-min Rain = 0
KMNS 211505Z 21008KT 06/M06 A2986 RMK A01 T00611060  RH  042%=      5-min Rain = 0
KMNS 211510Z 22009KT 07/M06 A2986 RMK A01 T00681063  RH  039%=      5-min Rain = 0
KMNS 211515Z 22009G15KT 08/M07 A2985 RMK A01 T00761065  RH  036%=      5-min Rain = 0
KMNS 211520Z 22009KT 08/M06 A2985 RMK A01 T00781064  RH  036%=      5-min Rain = 0
KMNS 211525Z 23008KT 08/M06 A2985 RMK A01 T00831061  RH  036%=      5-min Rain = 0
KMNS 211530Z 22009KT 09/M06 A2985 RMK A01 T00861058  RH  036%=      5-min Rain = 0
KMNS 211535Z 22009KT 09/M06 A2985 RMK A01 T00901055  RH  036%=      5-min Rain = 0
KMNS 211540Z 22009KT 09/M05 A2985 RMK A01 T00941052  RH  035%=      5-min Rain = 0
KMNS 211545Z 21010KT 10/M05 A2985 RMK A01 T01041049  RH  034%=      5-min Rain = 0
KMNS 211550Z 22009KT 12/M05 A2985 RMK A01 T01151048  RH  032%=      5-min Rain = 0
KMNS 211555Z 22009G15KT 13/M05 A2985 RMK A01 T01251051  RH  029%=      5-min Rain = 0
KMNS 211600Z 22014KT 13/M06 A2984 RMK A01 T01321059  RH  026%=      5-min Rain = 0
KMNS 211605Z 22015KT 14/M06 A2984 RMK A01 T01371063  RH  024%=      5-min Rain = 0
KMNS 211610Z 22014KT 14/M06 A2984 RMK A01 T01401063  RH  024%=      5-min Rain = 0
KMNS 211615Z 22017G23KT 14/M07 A2984 RMK A01 T01431066  RH  023%=      5-min Rain = 0
KMNS 211620Z 21018G24KT 15/M07 A2983 RMK A01 T01481069  RH  022%=      5-min Rain = 0
KMNS 211625Z 22017G22KT 15/M07 A2983 RMK A01 T01481070  RH  022%=      5-min Rain = 0
KMNS 211630Z 21018G25KT 15/M07 A2983 RMK A01 T01491071  RH  021%=      5-min Rain = 0
KMNS 211635Z 22020G27KT 15/M07 A2983 RMK A01 T01531073  RH  020%=      5-min Rain = 0
KMNS 211640Z 22018G24KT 16/M07 A2982 RMK A01 T01571072  RH  020%=      5-min Rain = 0
KMNS 211645Z 22018G24KT 16/M07 A2982 RMK A01 T01601071  RH  020%=      5-min Rain = 0
KMNS 211650Z 21020G27KT 17/M07 A2982 RMK A01 T01661071  RH  019%=      5-min Rain = 0
KMNS 211655Z 22022G27KT 17/M07 A2982 RMK A01 T01681072  RH  019%=      5-min Rain = 0
KMNS 211700Z 22022G28KT 17/M07 A2982 RMK A01 T01691072  RH  018%=      5-min Rain = 0
KMNS 211705Z 21022G29KT 17/M07 A2982 RMK A01 T01691072  RH  019%=      5-min Rain = 0
KMNS 211710Z 21020G28KT 17/M07 A2982 RMK A01 T01691072  RH  019%=      5-min Rain = 0
KMNS 211715Z 22019G24KT 17/M07 A2982 RMK A01 T01671072  RH  019%=      5-min Rain = 0
KMNS 211720Z 22020G27KT 17/M07 A2982 RMK A01 T01691072  RH  019%=      5-min Rain = 0
KMNS 211725Z 21019G24KT 17/M07 A2982 RMK A01 T01731070  RH  018%=      5-min Rain = 0
KMNS 211730Z 22019G27KT 17/M07 A2981 RMK A01 T01731071  RH  018%=      5-min Rain = 0
KMNS 211735Z 21020G26KT 17/M07 A2981 RMK A01 T01741071  RH  018%=      5-min Rain = 0
KMNS 211740Z 22019G24KT 18/M07 A2981 RMK A01 T01781070  RH  018%=      5-min Rain = 0
KMNS 211745Z 22019G29KT 18/M07 A2981 RMK A01 T01831071  RH  017%=      5-min Rain = 0
KMNS 211750Z 22021G29KT 19/M07 A2981 RMK A01 T01851072  RH  017%=      5-min Rain = 0
KMNS 211755Z 23022G28KT 19/M07 A2981 RMK A01 T01861072  RH  017%=      5-min Rain = 0
KMNS 211800Z 22023G29KT 19/M07 A2981 RMK A01 T01891074  RH  016%=      5-min Rain = 0
KMNS 211805Z 22023G28KT 19/M08 A298 RMK A01 T01891075  RH  016%=      5-min Rain = 0
KMNS 211810Z 22018G26KT 20/M07 A2981 RMK A01 T01981073  RH  015%=      5-min Rain = 0
KMNS 211815Z 23020G28KT 20/M08 A298 RMK A01 T02031075  RH  015%=      5-min Rain = 0
KMNS 211820Z 23021G31KT 20/M08 A298 RMK A01 T02031076  RH  014%=      5-min Rain = 0
KMNS 211825Z 22021G29KT 20/M08 A2979 RMK A01 T02001077  RH  015%=      5-min Rain = 0
KMNS 211830Z 23019G26KT 20/M08 A2979 RMK A01 T02021075  RH  015%=      5-min Rain = 0
KMNS 211835Z 22022G31KT 21/M08 A2978 RMK A01 T02051075  RH  014%=      5-min Rain = 0
KMNS 211840Z 22020G30KT 21/M07 A2978 RMK A01 T02091073  RH  014%=      5-min Rain = 0
KMNS 211845Z 22022G29KT 21/M08 A2977 RMK A01 T02101077  RH  014%=      5-min Rain = 0
KMNS 211850Z 22019G26KT 21/M08 A2977 RMK A01 T02141077  RH  013%=      5-min Rain = 0
KMNS 211855Z 22021G26KT 22/M08 A2977 RMK A01 T02161076  RH  013%=      5-min Rain = 0
KMNS 211900Z 22018G25KT 22/M07 A2976 RMK A01 T02241073  RH  013%=      5-min Rain = 0
KMNS 211905Z 22021G27KT 22/M08 A2976 RMK A01 T02231077  RH  013%=      5-min Rain = 0
KMNS 211910Z 21021G28KT 23/M08 A2976 RMK A01 T02261075  RH  013%=      5-min Rain = 0
KMNS 211915Z 23018G24KT 23/M08 A2975 RMK A01 T02261078  RH  012%=      5-min Rain = 0
KMNS 211920Z 22020G26KT 23/M08 A2975 RMK A01 T02281081  RH  012%=      5-min Rain = 0
KMNS 211925Z 23023G31KT 22/M09 A2974 RMK A01 T02241088  RH  012%=      5-min Rain = 0
KMNS 211930Z 22024G30KT 23/M09 A2973 RMK A01 T02291087  RH  011%=      5-min Rain = 0
KMNS 211935Z 22026G33KT 23/M09 A2973 RMK A01 T02281089  RH  011%=      5-min Rain = 0
KMNS 211940Z 22023G30KT 23/M09 A2972 RMK A01 T02301090  RH  011%=      5-min Rain = 0
KMNS 211945Z 23023G30KT 23/M09 A2972 RMK A01 T02281091  RH  011%=      5-min Rain = 0
KMNS 211950Z 22022G31KT 23/M09 A2972 RMK A01 T02281088  RH  011%=      5-min Rain = 0
KMNS 211955Z 22022G30KT 23/M09 A2971 RMK A01 T02271087  RH  011%=      5-min Rain = 0
KMNS 212000Z 22022G29KT 23/M09 A2971 RMK A01 T02281087  RH  011%=      5-min Rain = 0
KMNS 212005Z 22024G33KT 23/M09 A297 RMK A01 T02281089  RH  011%=      5-min Rain = 0
KMNS 212010Z 22024G30KT 23/M09 A297 RMK A01 T02291090  RH  011%=      5-min Rain = 0
KMNS 212015Z 22023G30KT 23/M09 A297 RMK A01 T02251093  RH  011%=      5-min Rain = 0
KMNS 212020Z 22021G27KT 23/M09 A297 RMK A01 T02271092  RH  011%=      5-min Rain = 0
KMNS 212025Z 21022G30KT 23/M09 A297 RMK A01 T02331092  RH  011%=      5-min Rain = 0
KMNS 212030Z 22022G29KT 23/M10 A2969 RMK A01 T02341097  RH  010%=      5-min Rain = 0
KMNS 212035Z 23020G25KT 24/M10 A2969 RMK A01 T02361098  RH  010%=      5-min Rain = 0
KMNS 212040Z 22022G31KT 24/M10 A2968 RMK A01 T02361100  RH  010%=      5-min Rain = 0
KMNS 212045Z 23019G25KT 24/M10 A2968 RMK A01 T02381101  RH  010%=      5-min Rain = 0
KMNS 212050Z 21023G29KT 23/M10 A2968 RMK A01 T02341100  RH  010%=      5-min Rain = 0
KMNS 212055Z 22021G30KT 23/M10 A2968 RMK A01 T02341098  RH  010%=      5-min Rain = 0
KMNS 212100Z 22021G28KT 23/M10 A2968 RMK A01 T02321099  RH  010%=      5-min Rain = 0
KMNS 212105Z 23020G26KT 23/M10 A2968 RMK A01 T02291101  RH  010%=      5-min Rain = 0
KMNS 212110Z 22021G31KT 23/M10 A2967 RMK A01 T02271099  RH  010%=      5-min Rain = 0
KMNS 212115Z 22020G32KT 23/M10 A2967 RMK A01 T02261098  RH  011%=      5-min Rain = 0
KMNS 212120Z 23023G29KT 23/M10 A2967 RMK A01 T02251101  RH  010%=      5-min Rain = 0
KMNS 212125Z 22021G26KT 22/M10 A2967 RMK A01 T02241100  RH  011%=      5-min Rain = 0
KMNS 212130Z 23018G24KT 23/M10 A2967 RMK A01 T02251100  RH  010%=      5-min Rain = 0
KMNS 212135Z 23018G29KT 23/M10 A2967 RMK A01 T02281098  RH  010%=      5-min Rain = 0
KMNS 212140Z 22021G29KT 23/M10 A2967 RMK A01 T02251100  RH  010%=      5-min Rain = 0
KMNS 212145Z 22021G28KT 22/M10 A2967 RMK A01 T02211101  RH  011%=      5-min Rain = 0
KMNS 212150Z 23021G29KT 22/M10 A2967 RMK A01 T02201101  RH  011%=      5-min Rain = 0
KMNS 212155Z 22021G27KT 22/M10 A2967 RMK A01 T02181100  RH  011%=      5-min Rain = 0
KMNS 212200Z 23020G28KT 22/M10 A2967 RMK A01 T02171100  RH  011%=      5-min Rain = 0
KMNS 212205Z 23023G32KT 22/M10 A2967 RMK A01 T02161101  RH  011%=      5-min Rain = 0
KMNS 212210Z 23019G29KT 22/M10 A2967 RMK A01 T02161100  RH  011%=      5-min Rain = 0
KMNS 212215Z 23019G28KT 22/M10 A2967 RMK A01 T02161099  RH  011%=      5-min Rain = 0
KMNS 212220Z 22021G30KT 22/M10 A2967 RMK A01 T02151100  RH  011%=      5-min Rain = 0
KMNS 212225Z 22020G28KT 21/M10 A2966 RMK A01 T02141100  RH  011%=      5-min Rain = 0
KMNS 212230Z 22020G28KT 21/M10 A2966 RMK A01 T02141098  RH  011%=      5-min Rain = 0
KMNS 212235Z 22024G30KT 21/M10 A2966 RMK A01 T02131099  RH  011%=      5-min Rain = 0
KMNS 212240Z 22021G28KT 21/M10 A2966 RMK A01 T02121100  RH  011%=      5-min Rain = 0
KMNS 212245Z 22016KT 21/M10 A2966 RMK A01 T02111099  RH  012%=      5-min Rain = 0
KMNS 212250Z 22015G22KT 21/M10 A2966 RMK A01 T02101099  RH  012%=      5-min Rain = 0
KMNS 212255Z 22015G21KT 21/M10 A2966 RMK A01 T02101099  RH  012%=      5-min Rain = 0
KMNS 212300Z 21017G26KT 21/M10 A2965 RMK A01 T02081097  RH  012%=      5-min Rain = 0
KMNS 212305Z 21020G29KT 21/M10 A2965 RMK A01 T02081095  RH  012%=      5-min Rain = 0
KMNS 212310Z 20019G24KT 21/M09 A2964 RMK A01 T02051093  RH  012%=      5-min Rain = 0
KMNS 212315Z 20020G25KT 21/M09 A2964 RMK A01 T02051093  RH  013%=      5-min Rain = 0
KMNS 212320Z 21020G28KT 20/M09 A2965 RMK A01 T02041092  RH  013%=      5-min Rain = 0
KMNS 212325Z 21020G26KT 20/M09 A2965 RMK A01 T02031092  RH  013%=      5-min Rain = 0
KMNS 212330Z 20018KT 20/M09 A2965 RMK A01 T02031093  RH  013%=      5-min Rain = 0
KMNS 212335Z 20016KT 20/M09 A2965 RMK A01 T02001091  RH  013%=      5-min Rain = 0
KMNS 212340Z 20016KT 20/M09 A2965 RMK A01 T01971090  RH  013%=      5-min Rain = 0
KMNS 212345Z 20015KT 20/M09 A2965 RMK A01 T01961090  RH  014%=      5-min Rain = 0
KMNS 212350Z 20014KT 19/M09 A2964 RMK A01 T01931089  RH  014%=      5-min Rain = 0
KMNS 212355Z 20013G18KT 19/M09 A2964 RMK A01 T01901087  RH  014%=      5-min Rain = 0
KMNS 220000Z 20012KT 18/M09 A2965 RMK A01 T01811085  RH  016%=      5-min Rain = 0
KMNS 220005Z 20012KT 18/M08 A2965 RMK A01 T01791084  RH  016%=      5-min Rain = 0
KMNS 220010Z 20011KT 18/M09 A2965 RMK A01 T01771085  RH  016%=      5-min Rain = 0
KMNS 220015Z 20009KT 18/M09 A2965 RMK A01 T01751085  RH  016%=      5-min Rain = 0
KMNS 220020Z 20008KT 18/M09 A2965 RMK A01 T01761086  RH  016%=      5-min Rain = 0
KMNS 220025Z 20007KT 18/M09 A2965 RMK A01 T01751085  RH  016%=      5-min Rain = 0
KMNS 220030Z 20006KT 17/M08 A2965 RMK A01 T01701084  RH  017%=      5-min Rain = 0
KMNS 220035Z 20007KT 16/M08 A2965 RMK A01 T01641083  RH  018%=      5-min Rain = 0
KMNS 220040Z 20008KT 16/M08 A2965 RMK A01 T01601083  RH  018%=      5-min Rain = 0
KMNS 220045Z 20008KT 16/M08 A2966 RMK A01 T01611084  RH  018%=      5-min Rain = 0
KMNS 220050Z 21009KT 17/M09 A2966 RMK A01 T01701087  RH  016%=      5-min Rain = 0
KMNS 220055Z 22010G17KT 17/M09 A2966 RMK A01 T01741090  RH  016%=      5-min Rain = 0
KMNS 220100Z 22013G21KT 18/M10 A2965 RMK A01 T01831097  RH  014%=      5-min Rain = 0
KMNS 220105Z 23017G23KT 19/M10 A2965 RMK A01 T01881099  RH  013%=      5-min Rain = 0
KMNS 220110Z 23016G22KT 19/M10 A2965 RMK A01 T01881099  RH  013%=      5-min Rain = 0
KMNS 220115Z 22016G22KT 19/M10 A2965 RMK A01 T01881099  RH  013%=      5-min Rain = 0
KMNS 220120Z 22015G21KT 19/M10 A2965 RMK A01 T01881099  RH  013%=      5-min Rain = 0
KMNS 220125Z 21016G21KT 19/M10 A2965 RMK A01 T01881099  RH  013%=      5-min Rain = 0
KMNS 220130Z 21014G19KT 18/M09 A2965 RMK A01 T01821094  RH  014%=      5-min Rain = 0
KMNS 220135Z 21015G21KT 18/M09 A2965 RMK A01 T01801092  RH  015%=      5-min Rain = 0
KMNS 220140Z 21017G22KT 18/M09 A2965 RMK A01 T01831093  RH  014%=      5-min Rain = 0
KMNS 220145Z 21017G25KT 18/M09 A2965 RMK A01 T01831093  RH  014%=      5-min Rain = 0
KMNS 220150Z 21019G24KT 18/M09 A2965 RMK A01 T01841093  RH  014%=      5-min Rain = 0
KMNS 220155Z 21015G20KT 18/M09 A2965 RMK A01 T01811092  RH  015%=      5-min Rain = 0
KMNS 220200Z 21014KT 18/M09 A2965 RMK A01 T01811092  RH  015%=      5-min Rain = 0
KMNS 220205Z 22013KT 19/M09 A2965 RMK A01 T01851093  RH  014%=      5-min Rain = 0
KMNS 220210Z 22012G18KT 18/M09 A2965 RMK A01 T01841093  RH  014%=      5-min Rain = 0
KMNS 220215Z 22014G19KT 19/M09 A2964 RMK A01 T01851093  RH  014%=      5-min Rain = 0
KMNS 220220Z 22014KT 18/M09 A2964 RMK A01 T01841093  RH  014%=      5-min Rain = 0
KMNS 220225Z 22013KT 18/M09 A2964 RMK A01 T01831092  RH  014%=      5-min Rain = 0
KMNS 220230Z 22011KT 18/M09 A2964 RMK A01 T01791091  RH  015%=      5-min Rain = 0
KMNS 220235Z 21011KT 18/M09 A2964 RMK A01 T01771090  RH  015%=      5-min Rain = 0
KMNS 220240Z 21011KT 17/M09 A2964 RMK A01 T01731088  RH  016%=      5-min Rain = 0
KMNS 220245Z 21012G17KT 17/M09 A2964 RMK A01 T01711087  RH  016%=      5-min Rain = 0
KMNS 220250Z 21013KT 17/M09 A2964 RMK A01 T01701086  RH  016%=      5-min Rain = 0
KMNS 220255Z 21012KT 17/M09 A2964 RMK A01 T01701086  RH  017%=      5-min Rain = 0
KMNS 220300Z 20011KT 17/M08 A2964 RMK A01 T01661084  RH  017%=      5-min Rain = 0
KMNS 220305Z 18009KT 16/M08 A2965 RMK A01 T01561082  RH  019%=      5-min Rain = 0
KMNS 220310Z 17010KT 15/M08 A2965 RMK A01 T01471082  RH  020%=      5-min Rain = 0
KMNS 220315Z 19012G18KT 14/M08 A2965 RMK A01 T01441082  RH  020%=      5-min Rain = 0
KMNS 220320Z 19012KT 15/M08 A2965 RMK A01 T01471081  RH  020%=      5-min Rain = 0
KMNS 220325Z 19011KT 15/M08 A2965 RMK A01 T01481082  RH  020%=      5-min Rain = 0
KMNS 220330Z 20011KT 15/M08 A2965 RMK A01 T01471081  RH  020%=      5-min Rain = 0
KMNS 220335Z 19011KT 14/M08 A2965 RMK A01 T01431080  RH  020%=      5-min Rain = 0
KMNS 220340Z 20010KT 14/M08 A2965 RMK A01 T01391079  RH  021%=      5-min Rain = 0
KMNS 220345Z 19010KT 14/M08 A2964 RMK A01 T01361078  RH  022%=      5-min Rain = 0
KMNS 220350Z 18009KT 14/M08 A2964 RMK A01 T01351080  RH  022%=      5-min Rain = 0
KMNS 220355Z 18010KT 14/M08 A2964 RMK A01 T01351080  RH  022%=      5-min Rain = 0
KMNS 220400Z 18010KT 13/M08 A2965 RMK A01 T01341079  RH  022%=      5-min Rain = 0
KMNS 220405Z 18010KT 13/M08 A2965 RMK A01 T01321080  RH  022%=      5-min Rain = 0
KMNS 220410Z 18011KT 13/M08 A2965 RMK A01 T01321079  RH  022%=      5-min Rain = 0
KMNS 220415Z 17013KT 13/M07 A2965 RMK A01 T01291074  RH  024%=      5-min Rain = 0
KMNS 220420Z 18014KT 12/M06 A2965 RMK A01 T01241060  RH  027%=      5-min Rain = 0
KMNS 220425Z 18014KT 13/M05 A2964 RMK A01 T01251054  RH  028%=      5-min Rain = 0
KMNS 220430Z 18014KT 13/M05 A2964 RMK A01 T01251051  RH  029%=      5-min Rain = 0
KMNS 220435Z 18014KT 13/M05 A2964 RMK A01 T01251050  RH  029%=      5-min Rain = 0
KMNS 220440Z 18014KT 13/M05 A2964 RMK A01 T01251050  RH  029%=      5-min Rain = 0
KMNS 220445Z 18014KT 12/M05 A2964 RMK A01 T01241051  RH  029%=      5-min Rain = 0
KMNS 220450Z 18015KT 12/M05 A2964 RMK A01 T01241050  RH  029%=      5-min Rain = 0
KMNS 220455Z 18013KT 12/M05 A2964 RMK A01 T01221048  RH  030%=      5-min Rain = 0
KMNS 220500Z 18014KT 12/M05 A2964 RMK A01 T01211046  RH  031%=      5-min Rain = 0
KMNS 220505Z 18014KT 12/M05 A2964 RMK A01 T01191045  RH  032%=      5-min Rain = 0
KMNS 220510Z 18015G20KT 12/M04 A2964 RMK A01 T01191042  RH  032%=      5-min Rain = 0
KMNS 220515Z 18018G23KT 12/M04 A2964 RMK A01 T01211039  RH  033%=      5-min Rain = 0
KMNS 220520Z 18017KT 12/M04 A2964 RMK A01 T01221035  RH  034%=      5-min Rain = 0
KMNS 220525Z 18018G24KT 12/M03 A2964 RMK A01 T01211029  RH  035%=      5-min Rain = 0
KMNS 220530Z 18019KT 12/M03 A2964 RMK A01 T01211025  RH  036%=      5-min Rain = 0
KMNS 220535Z 18019G25KT 12/M02 A2963 RMK A01 T01201023  RH  037%=      5-min Rain = 0
KMNS 220540Z 18019G24KT 12/M02 A2964 RMK A01 T01181021  RH  038%=      5-min Rain = 0
KMNS 220545Z 18017G22KT 12/M02 A2964 RMK A01 T01161020  RH  039%=      5-min Rain = 0
KMNS 220550Z 18016KT 11/M02 A2964 RMK A01 T01141020  RH  040%=      5-min Rain = 0
KMNS 220555Z 18016G21KT 11/M02 A2964 RMK A01 T01131019  RH  040%=      5-min Rain = 0

Page generated in 0.0093 seconds.